Fort Stewart, GA

11:34 AM EST on March 03, 2015 (GMT -0500)
Wright Army Air Field | Change Station
CLOSE
Current Station
Airport
Location: Ft. Stewart,
Elevation: 46 ft
Nearby Weather Stations

Elev 46 ft 31.89 °N, 81.56 °W | Updated 36 minutes ago

Overcast
Overcast
66 °F
Feels Like 66 °F
N
8
Wind Variable Wind from ESE

Today
High -- | Low -- °F
--% Chance of Precip.
Yesterday
High -- | Low -- °F
Precip. -- in
6:51 AM 6:25 PM
Waxing Gibbous, 96% visible
Pressure 30.24 in
Visibility 10.0 miles
Clouds Overcast 8500 ft
Dew Point 59 °F
Humidity 78%
Rainfall 0.00 in
Snow Depth Not available.
UV 2 out of 12
Pollen 4.50 out of 12
Air Quality Not available.
Flu Activity Not available.
METAR KLHW 031558Z AUTO 12007KT 10SM OVC085 19/15 A3023 RMK AO2 SLP240 T01900151

More Conditions Fewer Conditions

Pressure 30.24 in
Visibility 10.0 miles
Clouds Overcast 8500 ft
Dew Point 59 °F
Humidity 78%
Rainfall 0.00 in
Snow Depth Not available.
UV 2 out of 12
Pollen 4.50 out of 12
Air Quality Not available.
Flu Activity Not available.
METAR KLHW 031558Z AUTO 12007KT 10SM OVC085 19/15 A3023 RMK AO2 SLP240 T01900151

More Conditions Fewer Conditions

10-Day Weather Forecast

Almanac

Astronomy

Mar. 03, 2015 Rise Set
Actual Time
Civil Twilight
Nautical Twilight
Astronomical Twilight
Moon
Length of Visible Light
Length of Day
Tomorrow will be .
, % of the Moon is Illuminated

Today's Extremes

State Highs State Lows

Community

WunderPhotos

Upload Photos

1,802,164 photos uploaded!

WunderBlogs® & News

Nearby

Air Quality

  Air Quality AQ Index Pollutant
Not available.

Snow Depth

Station Depth Elevation

Earthquake Activity

City Distance Mag. Time & Date
Minimum magnitude displayed is 2.5.

Coastal Water Temperatures

Place Temperature

Nearby Weather Stations